createdAt,value
2022-07-27T00:04:07.757Z,974.92
2022-07-27T00:09:39.227Z,975.89
2022-07-27T00:15:10.989Z,976.34
2022-07-27T00:20:42.625Z,975.98
2022-07-27T00:26:14.406Z,976.26
2022-07-27T00:31:46.412Z,976.14
2022-07-27T00:37:17.867Z,976.45
2022-07-27T00:42:49.599Z,975.67
2022-07-27T00:48:21.384Z,976.16
2022-07-27T00:53:57.535Z,976.48
2022-07-27T00:59:29.123Z,976.58
2022-07-27T01:05:01.239Z,976.54
2022-07-27T01:10:32.546Z,976.33
2022-07-27T01:16:04.583Z,976.46
2022-07-27T01:21:36.026Z,976.3
2022-07-27T01:27:07.772Z,976.52
2022-07-27T01:32:39.415Z,976.46
2022-07-27T01:38:11.356Z,975.82
2022-07-27T01:43:43.052Z,975.68
2022-07-27T01:49:16.720Z,975.33
2022-07-27T01:54:50.713Z,975.29
2022-07-27T02:00:22.517Z,975.65
2022-07-27T02:05:54.182Z,974.85
2022-07-27T02:11:25.929Z,974.78
2022-07-27T02:16:58.990Z,975.07
2022-07-27T02:22:29.275Z,975.63
2022-07-27T02:28:01.190Z,975.62
2022-07-27T02:33:32.830Z,975.16
2022-07-27T02:39:04.527Z,975.12
2022-07-27T02:44:36.296Z,974.88
2022-07-27T02:50:08.013Z,974.87
2022-07-27T02:55:44.109Z,974.5
2022-07-27T03:01:16.142Z,974.68
2022-07-27T03:06:47.581Z,974.78
2022-07-27T03:12:19.273Z,975.11
2022-07-27T03:17:50.973Z,975.28
2022-07-27T03:23:22.664Z,975.02
2022-07-27T03:28:54.642Z,975.14
2022-07-27T03:34:26.086Z,975.06
2022-07-27T03:39:57.840Z,975.14
2022-07-27T03:45:29.549Z,975.56
2022-07-27T03:51:01.354Z,975.64
2022-07-27T03:56:37.530Z,975.74
2022-07-27T04:02:09.405Z,975.83
2022-07-27T04:07:40.979Z,976.26
2022-07-27T04:13:14.978Z,975.8
2022-07-27T04:18:44.235Z,976.32
2022-07-27T04:24:15.905Z,975.44
2022-07-27T04:29:47.821Z,976.19
2022-07-27T04:35:27.116Z,976.8
2022-07-27T04:40:58.658Z,976.4
2022-07-27T04:46:24.336Z,976.58
2022-07-27T04:51:54.829Z,977.16
2022-07-27T04:57:32.742Z,977.08
2022-07-27T05:03:04.498Z,976.86
2022-07-27T05:08:36.227Z,977.54
2022-07-27T05:14:07.977Z,977.7
2022-07-27T05:19:41.509Z,977.42
2022-07-27T05:25:11.505Z,977.35
2022-07-27T05:30:43.109Z,977.49
2022-07-27T05:36:14.865Z,978.15
2022-07-27T05:41:50.199Z,978.48
2022-07-27T05:47:18.429Z,977.76
2022-07-27T05:52:50.064Z,978.8
2022-07-27T05:58:28.119Z,978.36
2022-07-27T06:04:00.111Z,978.74
2022-07-27T06:09:31.597Z,978.51
2022-07-27T06:15:03.226Z,979.05
2022-07-27T06:20:34.965Z,978.55
2022-07-27T06:26:06.726Z,978.74
2022-07-27T06:31:38.900Z,979.28
2022-07-27T06:37:10.211Z,979.13
2022-07-27T06:42:41.909Z,979.15
2022-07-27T06:48:13.565Z,979.51
2022-07-27T06:53:45.339Z,979.74
2022-07-27T06:59:21.538Z,979.63
2022-07-27T07:04:53.154Z,979.6
2022-07-27T07:10:25.015Z,979.16
2022-07-27T07:15:57.037Z,980.28
2022-07-27T07:21:28.602Z,979.74
2022-07-27T07:27:00.305Z,979.57
2022-07-27T07:32:34.295Z,978.95
2022-07-27T07:38:04.064Z,979.28
2022-07-27T07:43:35.284Z,979.3
2022-07-27T07:49:07.385Z,980.47
2022-07-27T07:54:38.896Z,979.75
2022-07-27T08:00:14.891Z,979.14
2022-07-27T08:05:46.469Z,979.86
2022-07-27T08:11:18.325Z,979.49
2022-07-27T08:16:50.099Z,980.8
2022-07-27T08:22:21.899Z,980.47
2022-07-27T08:27:56.867Z,979.17
2022-07-27T08:33:25.271Z,980.41
2022-07-27T08:38:57.117Z,980.42
2022-07-27T08:44:28.648Z,981.09
2022-07-27T08:50:01.248Z,980.15
2022-07-27T08:55:32.192Z,979.73
2022-07-27T09:01:08.330Z,980.43
2022-07-27T09:06:39.948Z,980.53
2022-07-27T09:12:11.776Z,980.73
2022-07-27T09:17:50.887Z,980.0
2022-07-27T09:23:15.338Z,980.32
2022-07-27T09:28:46.852Z,980.76
2022-07-27T09:34:18.775Z,980.81
2022-07-27T09:39:50.375Z,981.51
2022-07-27T09:45:23.447Z,980.39
2022-07-27T09:51:19.931Z,981.33
2022-07-27T09:56:25.584Z,981.58
2022-07-27T10:02:01.761Z,981.51
2022-07-27T10:07:33.366Z,981.26
2022-07-27T10:13:05.102Z,980.1
2022-07-27T10:18:44.083Z,980.09
2022-07-27T10:24:08.612Z,980.91
2022-07-27T10:29:40.543Z,980.19
2022-07-27T10:35:12.048Z,980.71
2022-07-27T10:40:43.675Z,980.03
2022-07-27T10:46:15.491Z,981.53
2022-07-27T10:51:47.358Z,979.92
2022-07-27T10:57:18.981Z,980.27
2022-07-27T11:02:55.001Z,978.61
2022-07-27T11:08:52.297Z,981.06
2022-07-27T11:13:58.459Z,980.42
2022-07-27T11:19:30.213Z,979.68
2022-07-27T11:25:02.471Z,978.54
2022-07-27T11:30:34.729Z,978.54
2022-07-27T11:36:05.396Z,978.7
2022-07-27T11:42:12.737Z,980.03
2022-07-27T11:47:08.658Z,978.98
2022-07-27T11:52:40.447Z,979.78
2022-07-27T11:58:12.197Z,980.04
2022-07-27T12:03:48.527Z,980.62
2022-07-27T12:09:19.998Z,979.25
2022-07-27T12:14:52.041Z,978.29
2022-07-27T12:20:24.238Z,979.58
2022-07-27T12:25:55.103Z,978.31
2022-07-27T12:31:27.190Z,977.67
2022-07-27T12:36:58.496Z,977.55
2022-07-27T12:42:30.205Z,977.57
2022-07-27T12:48:01.981Z,978.12
2022-07-27T12:53:34.015Z,977.75
2022-07-27T12:59:05.504Z,978.52
2022-07-27T13:04:41.612Z,978.93
2022-07-27T13:10:13.323Z,979.53
2022-07-27T13:15:45.113Z,978.59
2022-07-27T13:21:16.795Z,976.97
2022-07-27T13:26:48.579Z,977.3
2022-07-27T13:32:20.461Z,977.06
2022-07-27T13:37:52.034Z,977.71
2022-07-27T13:43:23.747Z,977.43
2022-07-27T13:48:55.559Z,977.13
2022-07-27T13:54:27.039Z,977.95
2022-07-27T13:59:59.074Z,978.21
2022-07-27T14:05:35.994Z,976.89
2022-07-27T14:11:08.065Z,977.37
2022-07-27T14:16:38.835Z,977.64
2022-07-27T14:22:10.111Z,977.12
2022-07-27T14:27:41.899Z,976.45
2022-07-27T14:33:13.552Z,976.36
2022-07-27T14:38:45.250Z,976.76
2022-07-27T14:44:19.598Z,976.53
2022-07-27T14:49:48.874Z,977.0
2022-07-27T14:55:20.962Z,977.44
2022-07-27T15:00:52.364Z,977.71
2022-07-27T15:06:28.541Z,978.02
2022-07-27T15:12:00.432Z,977.18
2022-07-27T15:17:38.019Z,976.5
2022-07-27T15:23:05.551Z,976.74
2022-07-27T15:28:35.650Z,977.3
2022-07-27T15:34:07.413Z,976.56
2022-07-27T15:39:39.245Z,977.49
2022-07-27T15:45:11.010Z,976.7
2022-07-27T15:50:42.548Z,976.36
2022-07-27T15:56:14.429Z,977.36
2022-07-27T16:01:47.922Z,977.4
2022-07-27T16:07:22.165Z,976.71
2022-07-27T16:12:53.990Z,976.13
2022-07-27T16:18:25.790Z,976.68
2022-07-27T16:23:57.337Z,976.93
2022-07-27T16:29:29.229Z,976.31
2022-07-27T16:35:01.037Z,976.93
2022-07-27T16:40:32.477Z,976.27
2022-07-27T16:46:04.613Z,976.26
2022-07-27T16:51:35.962Z,976.33
2022-07-27T16:57:07.684Z,976.6
2022-07-27T17:02:39.361Z,976.72
2022-07-27T17:08:15.518Z,976.46
2022-07-27T17:13:49.882Z,976.44
2022-07-27T17:19:18.959Z,975.95
2022-07-27T17:24:50.690Z,976.51
2022-07-27T17:30:22.402Z,975.8
2022-07-27T17:35:54.226Z,976.02
2022-07-27T17:41:26.480Z,976.79
2022-07-27T17:46:57.847Z,976.39
2022-07-27T17:52:29.499Z,976.2
2022-07-27T17:58:01.179Z,975.95
2022-07-27T18:03:33.012Z,975.82
2022-07-27T18:09:11.777Z,975.72
2022-07-27T18:14:42.806Z,975.5
2022-07-27T18:20:14.497Z,975.67
2022-07-27T18:25:46.250Z,975.7
2022-07-27T18:31:18.059Z,975.35
2022-07-27T18:36:49.789Z,975.15
2022-07-27T18:42:21.296Z,974.93
2022-07-27T18:47:53.008Z,974.87
2022-07-27T18:53:24.769Z,974.82
2022-07-27T18:58:56.558Z,974.99
2022-07-27T19:04:28.205Z,975.03
2022-07-27T19:10:06.236Z,975.12
2022-07-27T19:15:37.955Z,975.19
2022-07-27T19:21:09.688Z,975.18
2022-07-27T19:26:41.491Z,975.22
2022-07-27T19:32:13.191Z,975.15
2022-07-27T19:37:44.967Z,975.19
2022-07-27T19:43:16.640Z,975.22
2022-07-27T19:48:48.483Z,975.35
2022-07-27T19:54:20.034Z,975.24
2022-07-27T19:59:57.376Z,974.89
2022-07-27T20:05:24.087Z,974.92
2022-07-27T20:11:02.595Z,974.71
2022-07-27T20:16:34.351Z,974.72
2022-07-27T20:22:05.839Z,974.61
2022-07-27T20:27:37.734Z,974.42
2022-07-27T20:33:09.422Z,974.6
2022-07-27T20:38:41.283Z,974.55
2022-07-27T20:44:12.930Z,974.58
2022-07-27T20:49:44.563Z,974.75
2022-07-27T20:55:16.300Z,974.7
2022-07-27T21:00:48.235Z,974.7
2022-07-27T21:06:19.723Z,974.88
2022-07-27T21:11:58.334Z,975.04
2022-07-27T21:17:29.615Z,974.98
2022-07-27T21:23:01.533Z,975.27
2022-07-27T21:28:34.086Z,975.15
2022-07-27T21:34:04.717Z,975.06
2022-07-27T21:39:36.480Z,975.13
2022-07-27T21:45:08.181Z,975.17
2022-07-27T21:50:40.081Z,975.02
2022-07-27T21:56:11.611Z,975.09
2022-07-27T22:01:43.508Z,974.95
2022-07-27T22:07:20.051Z,974.83
2022-07-27T22:12:53.143Z,974.74
2022-07-27T22:18:24.972Z,974.57
2022-07-27T22:23:56.815Z,974.59
2022-07-27T22:29:28.498Z,974.47
2022-07-27T22:35:00.087Z,974.7
2022-07-27T22:40:31.686Z,974.88
2022-07-27T22:46:04.108Z,974.98
2022-07-27T22:51:54.962Z,974.91
2022-07-27T22:57:06.998Z,975.01
2022-07-27T23:02:38.755Z,975.02
2022-07-27T23:08:10.516Z,975.01
2022-07-27T23:13:46.702Z,975.08
2022-07-27T23:19:18.485Z,975.15
2022-07-27T23:24:52.199Z,975.27
2022-07-27T23:30:21.786Z,975.46
2022-07-27T23:35:53.870Z,975.49
2022-07-27T23:41:25.585Z,975.52
2022-07-27T23:46:57.318Z,975.59
2022-07-27T23:52:30.730Z,975.47
2022-07-27T23:58:00.506Z,975.33
